createdAt,value
2023-04-08T00:05:29.602Z,21.4
2023-04-08T00:11:22.972Z,21.1
2023-04-08T00:17:15.593Z,21.8
2023-04-08T00:23:08.591Z,21.3
2023-04-08T00:29:00.384Z,21.7
2023-04-08T00:34:52.412Z,22.5
2023-04-08T00:40:44.262Z,21.3
2023-04-08T00:46:36.040Z,21.6
2023-04-08T00:52:28.241Z,21.6
2023-04-08T00:58:20.480Z,52.7
2023-04-08T01:04:13.068Z,21.6
2023-04-08T01:10:05.831Z,20.1
2023-04-08T01:15:59.399Z,19.8
2023-04-08T01:21:51.637Z,19.9
2023-04-08T01:27:44.475Z,20.2
2023-04-08T01:33:36.710Z,21.3
2023-04-08T01:39:29.793Z,20.9
2023-04-08T01:45:23.606Z,23.6
2023-04-08T01:51:16.481Z,22.7
2023-04-08T01:57:09.197Z,26.6
2023-04-08T02:03:02.463Z,26.2
2023-04-08T02:08:56.030Z,26.4
2023-04-08T02:14:48.960Z,25.8
2023-04-08T02:20:41.794Z,26.7
2023-04-08T02:26:35.082Z,26.2
2023-04-08T02:32:26.297Z,26.2
2023-04-08T02:38:19.138Z,27.5
2023-04-08T02:44:11.368Z,27.2
2023-04-08T02:50:04.526Z,28.2
2023-04-08T02:55:56.970Z,29
2023-04-08T03:01:50.183Z,29.8
2023-04-08T03:07:41.714Z,28.9
2023-04-08T03:13:33.815Z,29.8
2023-04-08T03:19:26.405Z,28.5
2023-04-08T03:25:18.071Z,31.8
2023-04-08T03:31:10.406Z,30.8
2023-04-08T03:37:02.395Z,34.2
2023-04-08T03:42:54.544Z,34
2023-04-08T03:48:47.056Z,39
2023-04-08T03:54:39.210Z,39.9
2023-04-08T04:00:31.007Z,38.3
2023-04-08T04:06:24.757Z,39.4
2023-04-08T04:12:16.827Z,38.4
2023-04-08T04:18:09.767Z,39.5
2023-04-08T11:51:59.119Z,29.9
2023-04-08T11:58:15.668Z,28.6
2023-04-08T12:04:11.543Z,29.6
2023-04-08T12:10:23.376Z,30.2
2023-04-08T12:16:54.221Z,29.4
2023-04-08T12:29:49.290Z,31.9
2023-04-08T12:36:00.280Z,32.2
2023-04-08T12:42:24.016Z,33.7
2023-04-08T12:48:38.062Z,34.9
2023-04-08T12:54:51.476Z,34.8
2023-04-08T13:00:59.528Z,35.2
2023-04-08T13:07:14.703Z,36.2
2023-04-08T13:13:27.087Z,36.9
2023-04-08T13:26:08.066Z,28.2
2023-04-08T13:37:55.667Z,29.1
2023-04-08T13:43:58.676Z,25.3
2023-04-08T13:50:12.029Z,25.9
2023-04-08T14:02:30.286Z,24.4
2023-04-08T14:15:07.195Z,21.6
2023-04-08T14:21:15.118Z,22.3
2023-04-08T14:27:06.146Z,24.6
2023-04-08T14:33:10.945Z,23.7
2023-04-08T14:39:15.852Z,26.9
2023-04-08T14:45:24.114Z,24.9
2023-04-08T14:51:26.272Z,25.4
2023-04-08T14:58:01.591Z,26.6
2023-04-08T15:04:03.877Z,26.6
2023-04-08T15:10:00.162Z,25.4
2023-04-08T15:15:56.811Z,24.4
2023-04-08T15:28:11.657Z,24.2
2023-04-08T15:34:11.477Z,24.4
2023-04-08T15:40:17.060Z,20.5
2023-04-08T15:46:23.658Z,19
2023-04-08T15:52:18.117Z,25.5
2023-04-08T15:58:12.048Z,22.2
2023-04-08T16:04:13.172Z,22
2023-04-08T16:10:37.677Z,22.5
2023-04-08T16:16:52.997Z,21.6
2023-04-08T16:23:17.798Z,22.4
2023-04-08T16:29:36.376Z,22.6
2023-04-08T16:35:35.673Z,22.4
2023-04-08T16:41:44.879Z,22.8
2023-04-08T17:00:56.448Z,23
2023-04-08T17:06:58.825Z,25.2
2023-04-08T17:13:03.831Z,20.4
2023-04-08T17:19:01.853Z,18
2023-04-08T17:25:02.672Z,16.5
2023-04-08T17:31:10.826Z,16.3
2023-04-08T17:37:12.767Z,15.4
2023-04-08T17:49:13.843Z,14.9
2023-04-08T17:55:04.734Z,19.3
2023-04-08T18:00:57.401Z,21.9
2023-04-08T18:07:24.817Z,20.9
2023-04-08T18:13:21.725Z,19.4
2023-04-08T18:19:27.013Z,16.2
2023-04-08T18:25:17.561Z,13.9
2023-04-08T18:31:10.176Z,15.1
2023-04-08T18:37:04.957Z,13.7
2023-04-08T18:42:56.504Z,13.5
2023-04-08T18:48:48.431Z,14.5
2023-04-08T18:54:41.969Z,13.6
2023-04-08T19:00:34.537Z,12.9
2023-04-08T19:06:26.686Z,15.1
2023-04-08T19:12:19.161Z,16.1
2023-04-08T19:18:10.960Z,20.1
2023-04-08T19:24:02.512Z,18.2
2023-04-08T19:29:54.191Z,17.8
2023-04-08T19:35:46.625Z,30.5
2023-04-08T19:41:38.816Z,43.4
2023-04-08T19:47:30.600Z,34
2023-04-08T19:53:22.595Z,26
2023-04-08T19:59:16.822Z,23.1
2023-04-08T20:05:07.686Z,22.2
2023-04-08T20:10:59.811Z,23.2
2023-04-08T20:16:52.039Z,22.9
2023-04-08T20:22:43.394Z,20.7
2023-04-08T20:28:35.535Z,21
2023-04-08T20:34:27.842Z,21.8
2023-04-08T20:40:22.803Z,22.9
2023-04-08T20:46:15.410Z,25.8
2023-04-08T20:52:07.696Z,26.7
2023-04-08T20:58:01.803Z,24.8
2023-04-08T21:03:54.893Z,23.6
2023-04-08T21:09:47.518Z,24.2
2023-04-08T21:15:39.764Z,27.6
2023-04-08T21:21:31.554Z,24.2
2023-04-08T21:27:24.416Z,25.7
2023-04-08T21:33:16.363Z,27.4
2023-04-08T21:39:09.249Z,28.3
2023-04-08T21:45:01.614Z,29.3
2023-04-08T21:50:55.723Z,31.3
2023-04-08T21:56:47.538Z,29.4
2023-04-08T22:02:41.067Z,29
2023-04-08T22:08:32.351Z,30
2023-04-08T22:14:24.380Z,30.5
2023-04-08T22:20:16.378Z,30.8
2023-04-08T22:26:08.498Z,32.2
2023-04-08T22:32:01.579Z,29.1
2023-04-08T22:37:53.850Z,32.1
2023-04-08T22:43:45.446Z,31.8
2023-04-08T22:49:37.413Z,32.6
2023-04-08T22:55:28.806Z,32.6
2023-04-08T23:01:20.967Z,34
2023-04-08T23:07:13.616Z,31.5
2023-04-08T23:13:05.541Z,27.7
2023-04-08T23:18:58.788Z,29.2
2023-04-08T23:24:50.028Z,32.9
2023-04-08T23:30:42.391Z,34.4
2023-04-08T23:36:33.842Z,29.6
2023-04-08T23:42:26.048Z,32.4
2023-04-08T23:48:17.599Z,33.1
2023-04-08T23:54:17.094Z,33.8
